sensor_id;sensor_type;location;lat;lon;timestamp;temperature;humidity
19007;DHT22;9636;47.382;8.480;2023-03-23T00:00:58;17.00;95.70
19007;DHT22;9636;47.382;8.480;2023-03-23T00:03:25;16.90;95.70
19007;DHT22;9636;47.382;8.480;2023-03-23T00:05:54;17.00;95.80
19007;DHT22;9636;47.382;8.480;2023-03-23T00:08:29;16.90;95.80
19007;DHT22;9636;47.382;8.480;2023-03-23T00:10:56;16.90;95.80
19007;DHT22;9636;47.382;8.480;2023-03-23T00:13:23;16.90;95.80
19007;DHT22;9636;47.382;8.480;2023-03-23T00:15:50;16.90;95.80
19007;DHT22;9636;47.382;8.480;2023-03-23T00:18:18;16.90;95.90
19007;DHT22;9636;47.382;8.480;2023-03-23T00:20:48;16.80;95.90
19007;DHT22;9636;47.382;8.480;2023-03-23T00:23:15;16.80;95.90
19007;DHT22;9636;47.382;8.480;2023-03-23T00:25:49;16.80;95.90
19007;DHT22;9636;47.382;8.480;2023-03-23T00:28:16;16.80;96.00
19007;DHT22;9636;47.382;8.480;2023-03-23T00:33:12;16.80;95.70
19007;DHT22;9636;47.382;8.480;2023-03-23T00:35:40;16.80;96.00
19007;DHT22;9636;47.382;8.480;2023-03-23T00:38:07;16.70;96.10
19007;DHT22;9636;47.382;8.480;2023-03-23T00:40:34;16.70;96.00
19007;DHT22;9636;47.382;8.480;2023-03-23T00:43:03;16.70;96.10
19007;DHT22;9636;47.382;8.480;2023-03-23T00:45:30;16.70;96.10
19007;DHT22;9636;47.382;8.480;2023-03-23T00:48:00;16.70;96.20
19007;DHT22;9636;47.382;8.480;2023-03-23T00:50:28;16.70;96.20
19007;DHT22;9636;47.382;8.480;2023-03-23T00:52:55;16.70;96.20
19007;DHT22;9636;47.382;8.480;2023-03-23T00:55:22;16.60;96.20
19007;DHT22;9636;47.382;8.480;2023-03-23T00:57:49;16.60;96.20
19007;DHT22;9636;47.382;8.480;2023-03-23T01:00:18;16.60;96.20
19007;DHT22;9636;47.382;8.480;2023-03-23T01:02:45;16.60;96.30
19007;DHT22;9636;47.382;8.480;2023-03-23T01:05:12;16.60;96.30
19007;DHT22;9636;47.382;8.480;2023-03-23T01:07:40;16.60;96.30
19007;DHT22;9636;47.382;8.480;2023-03-23T01:10:08;16.50;96.30
19007;DHT22;9636;47.382;8.480;2023-03-23T01:12:34;16.60;96.40
19007;DHT22;9636;47.382;8.480;2023-03-23T01:15:01;16.50;96.40
19007;DHT22;9636;47.382;8.480;2023-03-23T01:17:29;16.50;96.40
19007;DHT22;9636;47.382;8.480;2023-03-23T01:19:56;16.50;96.40
19007;DHT22;9636;47.382;8.480;2023-03-23T01:22:23;16.50;96.40
19007;DHT22;9636;47.382;8.480;2023-03-23T01:24:50;16.50;96.40
19007;DHT22;9636;47.382;8.480;2023-03-23T01:27:17;16.40;96.40
19007;DHT22;9636;47.382;8.480;2023-03-23T01:29:44;16.50;96.50
19007;DHT22;9636;47.382;8.480;2023-03-23T01:32:10;16.40;96.50
19007;DHT22;9636;47.382;8.480;2023-03-23T01:34:38;16.40;96.50
19007;DHT22;9636;47.382;8.480;2023-03-23T01:37:05;16.40;96.50
19007;DHT22;9636;47.382;8.480;2023-03-23T01:39:32;16.40;96.60
19007;DHT22;9636;47.382;8.480;2023-03-23T01:41:59;16.40;96.90
19007;DHT22;9636;47.382;8.480;2023-03-23T01:47:30;16.40;96.60
19007;DHT22;9636;47.382;8.480;2023-03-23T01:49:58;16.30;96.70
19007;DHT22;9636;47.382;8.480;2023-03-23T01:52:26;16.30;96.70
19007;DHT22;9636;47.382;8.480;2023-03-23T01:54:57;16.30;96.70
19007;DHT22;9636;47.382;8.480;2023-03-23T01:57:25;16.30;96.80
19007;DHT22;9636;47.382;8.480;2023-03-23T01:59:56;16.30;96.80
19007;DHT22;9636;47.382;8.480;2023-03-23T02:02:25;16.30;96.80
19007;DHT22;9636;47.382;8.480;2023-03-23T02:04:57;16.30;96.80
19007;DHT22;9636;47.382;8.480;2023-03-23T02:07:27;16.30;96.80
19007;DHT22;9636;47.382;8.480;2023-03-23T02:09:54;16.20;96.80
19007;DHT22;9636;47.382;8.480;2023-03-23T02:12:21;16.20;96.90
19007;DHT22;9636;47.382;8.480;2023-03-23T02:14:48;16.20;96.90
19007;DHT22;9636;47.382;8.480;2023-03-23T02:17:21;16.20;96.90
19007;DHT22;9636;47.382;8.480;2023-03-23T02:20:01;16.20;96.90
19007;DHT22;9636;47.382;8.480;2023-03-23T02:23:02;16.20;96.90
19007;DHT22;9636;47.382;8.480;2023-03-23T02:26:02;16.20;97.00
19007;DHT22;9636;47.382;8.480;2023-03-23T02:28:46;16.10;97.00
19007;DHT22;9636;47.382;8.480;2023-03-23T02:31:28;16.10;97.00
19007;DHT22;9636;47.382;8.480;2023-03-23T02:33:59;16.10;97.00
19007;DHT22;9636;47.382;8.480;2023-03-23T02:36:30;16.10;97.00
19007;DHT22;9636;47.382;8.480;2023-03-23T02:39:04;16.10;97.00
19007;DHT22;9636;47.382;8.480;2023-03-23T02:41:36;16.10;97.10
19007;DHT22;9636;47.382;8.480;2023-03-23T02:44:05;16.10;97.10
19007;DHT22;9636;47.382;8.480;2023-03-23T02:46:34;16.10;97.10
19007;DHT22;9636;47.382;8.480;2023-03-23T02:49:04;16.00;97.10
19007;DHT22;9636;47.382;8.480;2023-03-23T02:51:33;16.00;97.10
19007;DHT22;9636;47.382;8.480;2023-03-23T02:54:01;16.10;97.10
19007;DHT22;9636;47.382;8.480;2023-03-23T02:56:29;16.00;97.20
19007;DHT22;9636;47.382;8.480;2023-03-23T02:58:56;16.00;97.20
19007;DHT22;9636;47.382;8.480;2023-03-23T03:02:01;16.00;97.20
19007;DHT22;9636;47.382;8.480;2023-03-23T03:04:31;16.00;97.20
19007;DHT22;9636;47.382;8.480;2023-03-23T03:07:33;16.00;97.20
19007;DHT22;9636;47.382;8.480;2023-03-23T03:10:06;16.00;97.20
19007;DHT22;9636;47.382;8.480;2023-03-23T03:12:43;16.00;97.30
19007;DHT22;9636;47.382;8.480;2023-03-23T03:15:21;16.00;97.30
19007;DHT22;9636;47.382;8.480;2023-03-23T03:17:55;15.90;97.30
19007;DHT22;9636;47.382;8.480;2023-03-23T03:20:25;15.90;97.30
19007;DHT22;9636;47.382;8.480;2023-03-23T03:22:54;15.90;97.30
19007;DHT22;9636;47.382;8.480;2023-03-23T03:25:23;15.90;97.30
19007;DHT22;9636;47.382;8.480;2023-03-23T03:27:54;15.90;97.30
19007;DHT22;9636;47.382;8.480;2023-03-23T03:30:26;15.90;97.30
19007;DHT22;9636;47.382;8.480;2023-03-23T03:32:56;15.90;97.40
19007;DHT22;9636;47.382;8.480;2023-03-23T03:35:27;15.90;97.40
19007;DHT22;9636;47.382;8.480;2023-03-23T03:37:54;15.90;97.40
19007;DHT22;9636;47.382;8.480;2023-03-23T03:40:22;15.90;97.40
19007;DHT22;9636;47.382;8.480;2023-03-23T03:42:49;15.90;97.40
19007;DHT22;9636;47.382;8.480;2023-03-23T03:45:20;15.90;97.50
19007;DHT22;9636;47.382;8.480;2023-03-23T03:47:47;15.90;97.60
19007;DHT22;9636;47.382;8.480;2023-03-23T03:50:13;15.90;97.50
19007;DHT22;9636;47.382;8.480;2023-03-23T03:52:43;15.90;97.50
19007;DHT22;9636;47.382;8.480;2023-03-23T03:55:10;15.80;97.50
19007;DHT22;9636;47.382;8.480;2023-03-23T03:57:38;15.80;97.50
19007;DHT22;9636;47.382;8.480;2023-03-23T04:00:06;15.80;97.60
19007;DHT22;9636;47.382;8.480;2023-03-23T04:02:39;15.80;97.60
19007;DHT22;9636;47.382;8.480;2023-03-23T04:05:07;15.80;97.60
19007;DHT22;9636;47.382;8.480;2023-03-23T04:07:35;15.80;97.60
19007;DHT22;9636;47.382;8.480;2023-03-23T04:10:06;15.80;97.60
19007;DHT22;9636;47.382;8.480;2023-03-23T04:12:33;15.80;97.70
19007;DHT22;9636;47.382;8.480;2023-03-23T04:15:00;15.80;97.60
19007;DHT22;9636;47.382;8.480;2023-03-23T04:17:27;15.80;97.70
19007;DHT22;9636;47.382;8.480;2023-03-23T04:19:54;15.80;97.70
19007;DHT22;9636;47.382;8.480;2023-03-23T04:22:23;15.70;97.70
19007;DHT22;9636;47.382;8.480;2023-03-23T04:24:57;15.70;97.70
19007;DHT22;9636;47.382;8.480;2023-03-23T04:27:27;15.70;97.80
19007;DHT22;9636;47.382;8.480;2023-03-23T04:29:55;15.70;97.80
19007;DHT22;9636;47.382;8.480;2023-03-23T04:32:23;15.70;97.80
19007;DHT22;9636;47.382;8.480;2023-03-23T04:34:54;15.70;97.80
19007;DHT22;9636;47.382;8.480;2023-03-23T04:37:21;15.70;97.80
19007;DHT22;9636;47.382;8.480;2023-03-23T04:39:51;15.70;98.20
19007;DHT22;9636;47.382;8.480;2023-03-23T04:42:28;15.70;97.80
19007;DHT22;9636;47.382;8.480;2023-03-23T04:44:55;15.70;97.90
19007;DHT22;9636;47.382;8.480;2023-03-23T04:47:22;15.70;97.80
19007;DHT22;9636;47.382;8.480;2023-03-23T04:49:49;15.70;97.90
19007;DHT22;9636;47.382;8.480;2023-03-23T04:52:17;15.70;98.00
19007;DHT22;9636;47.382;8.480;2023-03-23T04:54:46;15.70;97.90
19007;DHT22;9636;47.382;8.480;2023-03-23T04:57:13;15.60;97.90
19007;DHT22;9636;47.382;8.480;2023-03-23T04:59:42;15.70;98.00
19007;DHT22;9636;47.382;8.480;2023-03-23T05:02:09;15.60;98.00
19007;DHT22;9636;47.382;8.480;2023-03-23T05:04:36;15.60;98.00
19007;DHT22;9636;47.382;8.480;2023-03-23T05:07:03;15.70;98.00
19007;DHT22;9636;47.382;8.480;2023-03-23T05:09:31;15.70;98.10
19007;DHT22;9636;47.382;8.480;2023-03-23T05:11:57;15.70;98.40
19007;DHT22;9636;47.382;8.480;2023-03-23T05:14:29;15.60;98.10
19007;DHT22;9636;47.382;8.480;2023-03-23T05:16:57;15.60;98.10
19007;DHT22;9636;47.382;8.480;2023-03-23T05:19:24;15.60;98.10
19007;DHT22;9636;47.382;8.480;2023-03-23T05:21:51;15.60;98.10
19007;DHT22;9636;47.382;8.480;2023-03-23T05:24:19;15.60;98.10
19007;DHT22;9636;47.382;8.480;2023-03-23T05:26:46;15.60;98.10
19007;DHT22;9636;47.382;8.480;2023-03-23T05:29:14;15.60;98.10
19007;DHT22;9636;47.382;8.480;2023-03-23T05:31:41;15.60;98.10
19007;DHT22;9636;47.382;8.480;2023-03-23T05:34:09;15.60;98.20
19007;DHT22;9636;47.382;8.480;2023-03-23T05:36:37;15.60;98.20
19007;DHT22;9636;47.382;8.480;2023-03-23T05:39:04;15.60;98.20
19007;DHT22;9636;47.382;8.480;2023-03-23T05:41:30;15.60;98.20
19007;DHT22;9636;47.382;8.480;2023-03-23T05:43:58;15.60;98.20
19007;DHT22;9636;47.382;8.480;2023-03-23T05:46:25;15.60;98.30
19007;DHT22;9636;47.382;8.480;2023-03-23T05:48:52;15.60;98.30
19007;DHT22;9636;47.382;8.480;2023-03-23T05:51:20;15.60;98.30
19007;DHT22;9636;47.382;8.480;2023-03-23T05:53:47;15.60;98.30
19007;DHT22;9636;47.382;8.480;2023-03-23T05:56:14;15.60;98.30
19007;DHT22;9636;47.382;8.480;2023-03-23T05:58:41;15.60;98.30
19007;DHT22;9636;47.382;8.480;2023-03-23T06:01:08;15.60;98.40
19007;DHT22;9636;47.382;8.480;2023-03-23T06:03:35;15.60;98.40
19007;DHT22;9636;47.382;8.480;2023-03-23T06:06:02;15.60;98.40
19007;DHT22;9636;47.382;8.480;2023-03-23T06:08:31;15.60;98.50
19007;DHT22;9636;47.382;8.480;2023-03-23T06:10:58;15.60;98.50
19007;DHT22;9636;47.382;8.480;2023-03-23T06:13:25;15.60;98.50
19007;DHT22;9636;47.382;8.480;2023-03-23T06:15:55;15.60;98.40
19007;DHT22;9636;47.382;8.480;2023-03-23T06:18:22;15.60;98.50
19007;DHT22;9636;47.382;8.480;2023-03-23T06:20:50;15.60;98.50
19007;DHT22;9636;47.382;8.480;2023-03-23T06:23:17;15.60;98.50
19007;DHT22;9636;47.382;8.480;2023-03-23T06:25:45;15.60;98.50
19007;DHT22;9636;47.382;8.480;2023-03-23T06:28:12;15.60;98.40
19007;DHT22;9636;47.382;8.480;2023-03-23T06:30:40;15.70;98.40
19007;DHT22;9636;47.382;8.480;2023-03-23T06:33:07;15.70;98.40
19007;DHT22;9636;47.382;8.480;2023-03-23T06:35:35;15.70;98.40
19007;DHT22;9636;47.382;8.480;2023-03-23T06:38:02;15.80;98.30
19007;DHT22;9636;47.382;8.480;2023-03-23T06:40:29;15.80;98.40
19007;DHT22;9636;47.382;8.480;2023-03-23T06:42:58;15.90;98.30
19007;DHT22;9636;47.382;8.480;2023-03-23T06:45:25;15.90;98.30
19007;DHT22;9636;47.382;8.480;2023-03-23T06:47:52;15.90;98.30
19007;DHT22;9636;47.382;8.480;2023-03-23T06:50:19;15.90;98.20
19007;DHT22;9636;47.382;8.480;2023-03-23T06:52:46;16.00;98.20
19007;DHT22;9636;47.382;8.480;2023-03-23T06:55:14;16.00;98.20
19007;DHT22;9636;47.382;8.480;2023-03-23T06:57:41;16.10;98.20
19007;DHT22;9636;47.382;8.480;2023-03-23T07:00:11;16.10;98.10
19007;DHT22;9636;47.382;8.480;2023-03-23T07:02:39;16.20;98.10
19007;DHT22;9636;47.382;8.480;2023-03-23T07:05:06;16.20;98.00
19007;DHT22;9636;47.382;8.480;2023-03-23T07:07:34;16.20;98.00
19007;DHT22;9636;47.382;8.480;2023-03-23T07:10:02;16.30;98.00
19007;DHT22;9636;47.382;8.480;2023-03-23T07:12:29;16.30;97.90
19007;DHT22;9636;47.382;8.480;2023-03-23T07:14:55;16.30;97.90
19007;DHT22;9636;47.382;8.480;2023-03-23T07:17:23;16.40;97.90
19007;DHT22;9636;47.382;8.480;2023-03-23T07:19:50;16.50;97.80
19007;DHT22;9636;47.382;8.480;2023-03-23T07:22:17;16.60;97.70
19007;DHT22;9636;47.382;8.480;2023-03-23T07:24:44;16.70;97.60
19007;DHT22;9636;47.382;8.480;2023-03-23T07:27:11;16.70;97.60
19007;DHT22;9636;47.382;8.480;2023-03-23T07:29:37;16.80;98.00
19007;DHT22;9636;47.382;8.480;2023-03-23T07:32:06;16.80;97.60
19007;DHT22;9636;47.382;8.480;2023-03-23T07:34:34;16.80;97.60
19007;DHT22;9636;47.382;8.480;2023-03-23T07:37:03;16.80;97.60
19007;DHT22;9636;47.382;8.480;2023-03-23T07:39:31;16.90;97.60
19007;DHT22;9636;47.382;8.480;2023-03-23T07:41:58;16.90;97.60
19007;DHT22;9636;47.382;8.480;2023-03-23T07:44:25;16.90;97.60
19007;DHT22;9636;47.382;8.480;2023-03-23T07:46:52;17.00;97.60
19007;DHT22;9636;47.382;8.480;2023-03-23T07:49:19;17.00;97.60
19007;DHT22;9636;47.382;8.480;2023-03-23T07:51:47;17.10;97.60
19007;DHT22;9636;47.382;8.480;2023-03-23T07:54:14;17.10;97.50
19007;DHT22;9636;47.382;8.480;2023-03-23T07:56:42;17.20;97.50
19007;DHT22;9636;47.382;8.480;2023-03-23T07:59:10;17.20;97.50
19007;DHT22;9636;47.382;8.480;2023-03-23T08:01:37;17.20;97.50
19007;DHT22;9636;47.382;8.480;2023-03-23T08:04:04;17.30;97.50
19007;DHT22;9636;47.382;8.480;2023-03-23T08:06:33;17.30;97.50
19007;DHT22;9636;47.382;8.480;2023-03-23T08:09:02;17.40;97.50
19007;DHT22;9636;47.382;8.480;2023-03-23T08:11:31;17.40;97.50
19007;DHT22;9636;47.382;8.480;2023-03-23T08:13:58;17.50;97.50
19007;DHT22;9636;47.382;8.480;2023-03-23T08:16:25;17.50;97.50
19007;DHT22;9636;47.382;8.480;2023-03-23T08:18:53;17.50;97.60
19007;DHT22;9636;47.382;8.480;2023-03-23T08:21:19;17.50;97.60
19007;DHT22;9636;47.382;8.480;2023-03-23T08:23:47;17.50;97.60
19007;DHT22;9636;47.382;8.480;2023-03-23T08:26:16;17.60;97.60
19007;DHT22;9636;47.382;8.480;2023-03-23T08:28:43;17.60;97.60
19007;DHT22;9636;47.382;8.480;2023-03-23T08:31:11;17.70;97.60
19007;DHT22;9636;47.382;8.480;2023-03-23T08:33:40;17.70;97.50
19007;DHT22;9636;47.382;8.480;2023-03-23T08:36:08;17.80;97.50
19007;DHT22;9636;47.382;8.480;2023-03-23T08:38:35;17.80;97.50
19007;DHT22;9636;47.382;8.480;2023-03-23T08:41:04;17.90;97.60
19007;DHT22;9636;47.382;8.480;2023-03-23T08:43:34;17.90;97.50
19007;DHT22;9636;47.382;8.480;2023-03-23T08:46:01;18.00;97.60
19007;DHT22;9636;47.382;8.480;2023-03-23T08:48:32;18.00;97.50
19007;DHT22;9636;47.382;8.480;2023-03-23T08:51:00;18.10;97.60
19007;DHT22;9636;47.382;8.480;2023-03-23T08:53:27;18.10;97.70
19007;DHT22;9636;47.382;8.480;2023-03-23T08:55:56;18.20;97.60
19007;DHT22;9636;47.382;8.480;2023-03-23T08:58:28;18.30;97.70
19007;DHT22;9636;47.382;8.480;2023-03-23T09:00:57;18.30;97.70
19007;DHT22;9636;47.382;8.480;2023-03-23T09:03:24;18.30;97.70
19007;DHT22;9636;47.382;8.480;2023-03-23T09:05:51;18.40;97.70
19007;DHT22;9636;47.382;8.480;2023-03-23T09:08:19;18.40;97.80
19007;DHT22;9636;47.382;8.480;2023-03-23T09:10:46;18.40;97.70
19007;DHT22;9636;47.382;8.480;2023-03-23T09:13:15;18.50;97.80
19007;DHT22;9636;47.382;8.480;2023-03-23T09:15:41;18.50;97.80
19007;DHT22;9636;47.382;8.480;2023-03-23T09:18:10;18.50;97.80
19007;DHT22;9636;47.382;8.480;2023-03-23T09:20:38;18.60;97.80
19007;DHT22;9636;47.382;8.480;2023-03-23T09:23:05;18.60;97.80
19007;DHT22;9636;47.382;8.480;2023-03-23T09:25:32;18.60;97.80
19007;DHT22;9636;47.382;8.480;2023-03-23T09:27:59;18.60;97.90
19007;DHT22;9636;47.382;8.480;2023-03-23T09:30:27;18.70;97.80
19007;DHT22;9636;47.382;8.480;2023-03-23T09:32:55;18.70;97.90
19007;DHT22;9636;47.382;8.480;2023-03-23T09:35:24;18.80;97.80
19007;DHT22;9636;47.382;8.480;2023-03-23T09:37:52;18.80;97.90
19007;DHT22;9636;47.382;8.480;2023-03-23T09:40:21;18.80;97.80
19007;DHT22;9636;47.382;8.480;2023-03-23T09:43:10;18.80;97.80
19007;DHT22;9636;47.382;8.480;2023-03-23T09:45:47;18.90;97.80
19007;DHT22;9636;47.382;8.480;2023-03-23T09:48:28;19.00;97.70
19007;DHT22;9636;47.382;8.480;2023-03-23T09:51:02;19.00;98.20
19007;DHT22;9636;47.382;8.480;2023-03-23T09:53:34;19.00;97.70
19007;DHT22;9636;47.382;8.480;2023-03-23T09:56:08;19.10;97.60
19007;DHT22;9636;47.382;8.480;2023-03-23T09:58:42;19.10;97.90
19007;DHT22;9636;47.382;8.480;2023-03-23T10:01:20;19.10;97.80
19007;DHT22;9636;47.382;8.480;2023-03-23T10:03:49;19.20;97.70
19007;DHT22;9636;47.382;8.480;2023-03-23T10:06:21;19.20;97.80
19007;DHT22;9636;47.382;8.480;2023-03-23T10:08:50;19.20;97.70
19007;DHT22;9636;47.382;8.480;2023-03-23T10:11:27;19.30;97.80
19007;DHT22;9636;47.382;8.480;2023-03-23T10:14:13;19.30;97.70
19007;DHT22;9636;47.382;8.480;2023-03-23T10:16:55;19.40;98.00
19007;DHT22;9636;47.382;8.480;2023-03-23T10:19:31;19.40;97.80
19007;DHT22;9636;47.382;8.480;2023-03-23T10:22:04;19.40;97.80
19007;DHT22;9636;47.382;8.480;2023-03-23T10:24:35;19.50;97.90
19007;DHT22;9636;47.382;8.480;2023-03-23T10:27:10;19.50;97.90
19007;DHT22;9636;47.382;8.480;2023-03-23T10:29:43;19.60;97.70
19007;DHT22;9636;47.382;8.480;2023-03-23T10:32:16;19.60;97.90
19007;DHT22;9636;47.382;8.480;2023-03-23T10:34:47;19.60;97.90
19007;DHT22;9636;47.382;8.480;2023-03-23T10:37:21;19.70;98.20
19007;DHT22;9636;47.382;8.480;2023-03-23T10:39:50;19.70;97.60
19007;DHT22;9636;47.382;8.480;2023-03-23T10:42:25;19.80;97.80
19007;DHT22;9636;47.382;8.480;2023-03-23T10:44:54;19.90;97.50
19007;DHT22;9636;47.382;8.480;2023-03-23T10:47:21;19.90;97.30
19007;DHT22;9636;47.382;8.480;2023-03-23T10:49:51;20.00;97.40
19007;DHT22;9636;47.382;8.480;2023-03-23T10:52:29;20.00;97.30
19007;DHT22;9636;47.382;8.480;2023-03-23T10:55:00;20.10;97.20
19007;DHT22;9636;47.382;8.480;2023-03-23T10:57:31;20.10;97.30
19007;DHT22;9636;47.382;8.480;2023-03-23T11:00:00;20.10;97.00
19007;DHT22;9636;47.382;8.480;2023-03-23T11:02:31;20.20;97.00
19007;DHT22;9636;47.382;8.480;2023-03-23T11:05:01;20.30;96.70
19007;DHT22;9636;47.382;8.480;2023-03-23T11:07:33;20.40;96.50
19007;DHT22;9636;47.382;8.480;2023-03-23T11:10:11;20.50;96.40
19007;DHT22;9636;47.382;8.480;2023-03-23T11:12:44;20.50;96.50
19007;DHT22;9636;47.382;8.480;2023-03-23T11:15:24;20.70;96.10
19007;DHT22;9636;47.382;8.480;2023-03-23T11:17:56;20.90;95.80
19007;DHT22;9636;47.382;8.480;2023-03-23T11:20:24;21.00;95.70
19007;DHT22;9636;47.382;8.480;2023-03-23T11:22:53;21.00;95.70
19007;DHT22;9636;47.382;8.480;2023-03-23T11:25:20;21.10;95.60
19007;DHT22;9636;47.382;8.480;2023-03-23T11:27:48;21.20;95.70
19007;DHT22;9636;47.382;8.480;2023-03-23T11:30:22;21.10;95.80
19007;DHT22;9636;47.382;8.480;2023-03-23T11:32:50;21.10;95.70
19007;DHT22;9636;47.382;8.480;2023-03-23T11:35:20;21.20;95.80
19007;DHT22;9636;47.382;8.480;2023-03-23T11:37:49;21.20;95.50
19007;DHT22;9636;47.382;8.480;2023-03-23T11:40:21;21.30;95.60
19007;DHT22;9636;47.382;8.480;2023-03-23T11:42:49;21.40;95.30
19007;DHT22;9636;47.382;8.480;2023-03-23T11:45:32;21.50;95.40
19007;DHT22;9636;47.382;8.480;2023-03-23T11:48:07;21.50;95.20
19007;DHT22;9636;47.382;8.480;2023-03-23T11:50:46;21.60;95.30
19007;DHT22;9636;47.382;8.480;2023-03-23T11:53:30;21.80;95.50
19007;DHT22;9636;47.382;8.480;2023-03-23T11:56:09;22.10;95.00
19007;DHT22;9636;47.382;8.480;2023-03-23T11:58:38;22.20;94.90
19007;DHT22;9636;47.382;8.480;2023-03-23T12:01:09;22.30;94.60
19007;DHT22;9636;47.382;8.480;2023-03-23T12:03:53;22.40;94.80
19007;DHT22;9636;47.382;8.480;2023-03-23T12:06:30;22.40;94.80
19007;DHT22;9636;47.382;8.480;2023-03-23T12:09:07;22.30;94.90
19007;DHT22;9636;47.382;8.480;2023-03-23T12:11:44;22.30;95.10
19007;DHT22;9636;47.382;8.480;2023-03-23T12:14:18;22.30;95.30
19007;DHT22;9636;47.382;8.480;2023-03-23T12:17:06;22.30;95.10
19007;DHT22;9636;47.382;8.480;2023-03-23T12:19:46;22.40;94.90
19007;DHT22;9636;47.382;8.480;2023-03-23T12:22:33;22.50;95.20
19007;DHT22;9636;47.382;8.480;2023-03-23T12:25:15;22.50;95.00
19007;DHT22;9636;47.382;8.480;2023-03-23T12:27:51;22.60;95.10
19007;DHT22;9636;47.382;8.480;2023-03-23T12:30:31;22.60;95.20
19007;DHT22;9636;47.382;8.480;2023-03-23T12:33:13;22.60;95.00
19007;DHT22;9636;47.382;8.480;2023-03-23T12:35:51;22.60;95.10
19007;DHT22;9636;47.382;8.480;2023-03-23T12:38:38;22.60;95.40
19007;DHT22;9636;47.382;8.480;2023-03-23T12:41:16;22.60;95.30
19007;DHT22;9636;47.382;8.480;2023-03-23T12:43:51;22.60;95.30
19007;DHT22;9636;47.382;8.480;2023-03-23T12:49:10;22.60;95.50
19007;DHT22;9636;47.382;8.480;2023-03-23T12:51:42;22.70;95.20
19007;DHT22;9636;47.382;8.480;2023-03-23T12:54:25;22.70;94.70
19007;DHT22;9636;47.382;8.480;2023-03-23T12:56:56;22.70;94.90
19007;DHT22;9636;47.382;8.480;2023-03-23T12:59:30;22.80;95.30
19007;DHT22;9636;47.382;8.480;2023-03-23T13:02:06;22.80;95.30
19007;DHT22;9636;47.382;8.480;2023-03-23T13:04:40;22.90;95.50
19007;DHT22;9636;47.382;8.480;2023-03-23T13:07:14;22.90;94.70
19007;DHT22;9636;47.382;8.480;2023-03-23T13:09:48;23.00;95.30
19007;DHT22;9636;47.382;8.480;2023-03-23T13:26:18;23.00;95.30
19007;DHT22;9636;47.382;8.480;2023-03-23T13:28:56;23.00;95.60
19007;DHT22;9636;47.382;8.480;2023-03-23T13:31:26;22.90;95.80
19007;DHT22;9636;47.382;8.480;2023-03-23T13:34:11;22.90;96.30
19007;DHT22;9636;47.382;8.480;2023-03-23T13:36:41;22.90;96.50
19007;DHT22;9636;47.382;8.480;2023-03-23T13:39:18;22.90;96.40
19007;DHT22;9636;47.382;8.480;2023-03-23T13:41:54;23.00;96.40
19007;DHT22;9636;47.382;8.480;2023-03-23T13:44:26;23.00;96.10
19007;DHT22;9636;47.382;8.480;2023-03-23T13:47:04;23.00;97.00
19007;DHT22;9636;47.382;8.480;2023-03-23T13:49:32;23.00;97.00
19007;DHT22;9636;47.382;8.480;2023-03-23T13:52:06;22.90;97.40
19007;DHT22;9636;47.382;8.480;2023-03-23T13:54:42;23.00;97.20
19007;DHT22;9636;47.382;8.480;2023-03-23T13:57:33;22.90;97.50
19007;DHT22;9636;47.382;8.480;2023-03-23T14:00:25;22.90;97.20
19007;DHT22;9636;47.382;8.480;2023-03-23T14:03:00;22.90;97.20
19007;DHT22;9636;47.382;8.480;2023-03-23T14:05:32;23.00;97.40
19007;DHT22;9636;47.382;8.480;2023-03-23T14:08:02;23.10;96.70
19007;DHT22;9636;47.382;8.480;2023-03-23T14:10:35;23.10;96.30
19007;DHT22;9636;47.382;8.480;2023-03-23T14:13:10;23.20;96.40
19007;DHT22;9636;47.382;8.480;2023-03-23T14:15:43;23.20;96.50
19007;DHT22;9636;47.382;8.480;2023-03-23T14:18:14;23.30;96.40
19007;DHT22;9636;47.382;8.480;2023-03-23T14:20:43;23.30;96.40
19007;DHT22;9636;47.382;8.480;2023-03-23T14:23:16;23.30;96.10
19007;DHT22;9636;47.382;8.480;2023-03-23T14:25:44;23.40;95.90
19007;DHT22;9636;47.382;8.480;2023-03-23T14:28:19;23.50;95.80
19007;DHT22;9636;47.382;8.480;2023-03-23T14:30:51;23.50;95.60
19007;DHT22;9636;47.382;8.480;2023-03-23T14:33:19;23.50;95.90
19007;DHT22;9636;47.382;8.480;2023-03-23T14:35:47;23.40;95.90
19007;DHT22;9636;47.382;8.480;2023-03-23T14:38:18;23.40;96.10
19007;DHT22;9636;47.382;8.480;2023-03-23T14:40:46;23.40;96.30
19007;DHT22;9636;47.382;8.480;2023-03-23T14:43:16;23.40;96.40
19007;DHT22;9636;47.382;8.480;2023-03-23T14:45:52;23.40;96.40
19007;DHT22;9636;47.382;8.480;2023-03-23T14:48:20;23.40;96.90
19007;DHT22;9636;47.382;8.480;2023-03-23T14:50:52;23.40;96.70
19007;DHT22;9636;47.382;8.480;2023-03-23T14:53:22;23.40;97.10
19007;DHT22;9636;47.382;8.480;2023-03-23T14:55:50;23.40;97.70
19007;DHT22;9636;47.382;8.480;2023-03-23T14:58:19;23.30;97.30
19007;DHT22;9636;47.382;8.480;2023-03-23T15:00:54;23.30;97.70
19007;DHT22;9636;47.382;8.480;2023-03-23T15:03:24;23.30;97.90
19007;DHT22;9636;47.382;8.480;2023-03-23T15:05:54;23.20;98.30
19007;DHT22;9636;47.382;8.480;2023-03-23T15:08:25;23.20;98.60
19007;DHT22;9636;47.382;8.480;2023-03-23T15:11:06;23.20;98.30
19007;DHT22;9636;47.382;8.480;2023-03-23T15:13:35;23.20;98.30
19007;DHT22;9636;47.382;8.480;2023-03-23T15:16:06;23.20;98.40
19007;DHT22;9636;47.382;8.480;2023-03-23T15:18:35;23.20;98.30
19007;DHT22;9636;47.382;8.480;2023-03-23T15:21:11;23.20;98.20
19007;DHT22;9636;47.382;8.480;2023-03-23T15:23:43;23.10;97.80
19007;DHT22;9636;47.382;8.480;2023-03-23T15:26:23;23.10;97.90
19007;DHT22;9636;47.382;8.480;2023-03-23T15:29:12;23.10;98.40
19007;DHT22;9636;47.382;8.480;2023-03-23T15:31:43;23.00;98.30
19007;DHT22;9636;47.382;8.480;2023-03-23T15:34:18;23.00;98.60
19007;DHT22;9636;47.382;8.480;2023-03-23T15:36:51;23.10;98.70
19007;DHT22;9636;47.382;8.480;2023-03-23T15:39:20;23.10;98.80
19007;DHT22;9636;47.382;8.480;2023-03-23T15:41:49;23.00;98.60
19007;DHT22;9636;47.382;8.480;2023-03-23T15:44:23;23.00;98.60
19007;DHT22;9636;47.382;8.480;2023-03-23T15:47:01;22.90;98.20
19007;DHT22;9636;47.382;8.480;2023-03-23T15:49:29;23.00;98.60
19007;DHT22;9636;47.382;8.480;2023-03-23T15:51:55;23.00;98.30
19007;DHT22;9636;47.382;8.480;2023-03-23T15:54:22;22.90;98.70
19007;DHT22;9636;47.382;8.480;2023-03-23T15:56:49;22.80;99.20
19007;DHT22;9636;47.382;8.480;2023-03-23T15:59:16;22.80;98.50
19007;DHT22;9636;47.382;8.480;2023-03-23T16:01:43;22.80;98.80
19007;DHT22;9636;47.382;8.480;2023-03-23T16:04:14;22.70;98.90
19007;DHT22;9636;47.382;8.480;2023-03-23T16:06:43;22.70;98.50
19007;DHT22;9636;47.382;8.480;2023-03-23T16:09:13;22.70;98.50
19007;DHT22;9636;47.382;8.480;2023-03-23T16:11:40;22.60;98.80
19007;DHT22;9636;47.382;8.480;2023-03-23T16:14:07;22.60;98.60
19007;DHT22;9636;47.382;8.480;2023-03-23T16:16:37;22.60;99.10
19007;DHT22;9636;47.382;8.480;2023-03-23T16:19:05;22.60;98.90
19007;DHT22;9636;47.382;8.480;2023-03-23T16:21:33;22.50;99.30
19007;DHT22;9636;47.382;8.480;2023-03-23T16:24:00;22.50;98.80
19007;DHT22;9636;47.382;8.480;2023-03-23T16:26:26;22.50;98.90
19007;DHT22;9636;47.382;8.480;2023-03-23T16:28:53;22.50;98.90